Time;durP1;ratioP1;P1;durP2;ratioP2;P2;SDS_P1;SDS_P2;PMS_P1;PMS_P2;Temp;Humidity;BMP_temperature;BMP_pressure;BME280_temperature;BME280_humidity;BME280_pressure;Samples;Min_cycle;Max_cycle;Signal;HPM_P1;HPM_P2
2022/03/28 00:02:07;;;;;;;15.30;9.70;;;5.00;99.90;;;;;;4958186;28;20184;-78
2022/03/28 00:04:33;;;;;;;16.43;10.07;;;5.00;99.90;;;;;;4957327;28;20207;-78
2022/03/28 00:06:59;;;;;;;19.57;10.40;;;5.00;99.90;;;;;;4958575;28;20220;-79
2022/03/28 00:09:24;;;;;;;20.80;11.13;;;5.00;99.90;;;;;;4960269;28;20180;-79
2022/03/28 00:11:50;;;;;;;19.90;10.20;;;5.10;99.90;;;;;;4959959;28;20172;-77
2022/03/28 00:14:16;;;;;;;20.27;10.33;;;5.00;99.90;;;;;;4955542;28;20199;-79
2022/03/28 00:16:42;;;;;;;19.10;9.67;;;5.00;99.90;;;;;;4953408;28;20204;-80
2022/03/28 00:19:07;;;;;;;17.93;9.50;;;5.00;99.90;;;;;;4949971;28;20632;-78
2022/03/28 00:21:33;;;;;;;13.87;8.23;;;4.90;99.90;;;;;;4949851;28;20176;-78
2022/03/28 00:23:59;;;;;;;16.77;8.83;;;5.00;99.90;;;;;;4954506;28;20188;-79
2022/03/28 00:26:24;;;;;;;16.40;8.47;;;5.10;99.90;;;;;;4951097;28;20206;-78
2022/03/28 00:28:50;;;;;;;15.10;8.43;;;5.10;99.90;;;;;;4951736;28;20176;-78
2022/03/28 00:31:16;;;;;;;15.37;8.37;;;5.10;99.90;;;;;;4944303;28;20168;-78
2022/03/28 00:33:42;;;;;;;13.77;7.37;;;5.10;99.90;;;;;;4945621;28;20169;-78
2022/03/28 00:36:08;;;;;;;11.70;8.03;;;5.00;99.90;;;;;;4948733;28;20663;-77
2022/03/28 00:38:33;;;;;;;11.83;6.87;;;5.00;99.90;;;;;;4949058;28;20660;-78
2022/03/28 00:40:59;;;;;;;12.90;7.13;;;5.00;99.90;;;;;;4952767;28;20176;-78
2022/03/28 00:43:26;;;;;;;11.53;6.87;;;5.10;99.90;;;;;;4945976;28;20176;-78
2022/03/28 00:45:52;;;;;;;10.27;6.93;;;5.10;99.90;;;;;;4947939;28;20258;-77
2022/03/28 00:48:18;;;;;;;16.43;8.50;;;5.00;99.90;;;;;;4947850;28;20255;-79
2022/03/28 00:50:43;;;;;;;11.13;6.80;;;5.00;99.90;;;;;;4948195;28;20179;-78
2022/03/28 00:53:11;;;;;;;8.60;6.10;;;4.90;99.90;;;;;;4948081;28;20178;-79
2022/03/28 00:55:37;;;;;;;10.77;7.73;;;4.90;99.90;;;;;;4947318;28;20191;-79
2022/03/28 00:58:03;;;;;;;12.00;7.23;;;4.90;99.90;;;;;;4947372;28;20191;-79
2022/03/28 01:00:28;;;;;;;10.47;6.20;;;4.90;99.90;;;;;;4947548;28;20191;-78
2022/03/28 01:02:55;;;;;;;9.43;6.30;;;4.80;99.90;;;;;;4946555;28;20214;-78
2022/03/28 01:05:21;;;;;;;9.80;6.73;;;4.80;99.90;;;;;;4947485;28;20287;-78
2022/03/28 01:07:46;;;;;;;12.53;6.70;;;4.80;99.90;;;;;;4946417;28;20298;-77
2022/03/28 01:10:12;;;;;;;9.03;6.53;;;4.80;99.90;;;;;;4946969;28;20190;-79
2022/03/28 01:12:42;;;;;;;12.63;6.83;;;4.90;99.90;;;;;;4946736;28;20172;-79
2022/03/28 01:15:10;;;;;;;11.27;7.03;;;4.90;99.90;;;;;;4943996;28;20176;-78
2022/03/28 01:20:24;;;;;;;13.17;8.13;;;4.90;99.90;;;;;;4962603;28;20184;-79
2022/03/28 01:22:49;;;;;;;14.77;9.00;;;4.90;99.90;;;;;;4946516;28;20201;-78
2022/03/28 01:25:24;;;;;;;17.20;9.10;;;4.90;99.90;;;;;;4946796;28;20183;-78
2022/03/28 01:27:52;;;;;;;14.43;8.63;;;4.90;99.90;;;;;;4946411;28;20239;-79
2022/03/28 01:30:20;;;;;;;13.53;8.40;;;4.80;99.90;;;;;;4946327;28;20199;-78
2022/03/28 01:32:47;;;;;;;16.83;10.10;;;4.70;99.90;;;;;;4945911;28;20195;-78
2022/03/28 01:35:12;;;;;;;18.20;10.73;;;4.70;99.90;;;;;;4945612;28;20188;-78
2022/03/28 01:37:38;;;;;;;18.30;11.37;;;4.70;99.90;;;;;;4944405;28;20183;-78
2022/03/28 01:40:04;;;;;;;20.03;12.07;;;4.70;99.90;;;;;;4946569;28;20239;-78
2022/03/28 01:42:30;;;;;;;20.80;12.33;;;4.60;99.90;;;;;;4946621;28;20172;-79
2022/03/28 01:44:57;;;;;;;22.67;12.70;;;4.60;99.90;;;;;;4946194;28;20180;-79
2022/03/28 01:47:26;;;;;;;23.03;12.37;;;4.70;99.90;;;;;;4946792;28;20730;-79
2022/03/28 01:49:52;;;;;;;21.37;12.67;;;4.70;99.90;;;;;;4944673;28;20259;-78
2022/03/28 01:52:18;;;;;;;20.60;12.37;;;4.70;99.90;;;;;;4946034;28;20227;-78
2022/03/28 01:54:44;;;;;;;21.63;12.00;;;4.80;99.90;;;;;;4947425;28;20256;-78
2022/03/28 01:57:10;;;;;;;21.53;11.97;;;4.80;99.90;;;;;;4947043;28;20247;-80
2022/03/28 01:59:36;;;;;;;19.53;12.10;;;4.80;99.90;;;;;;4964523;28;20182;-78
2022/03/28 02:02:02;;;;;;;20.33;11.17;;;4.80;99.90;;;;;;4949030;28;20184;-80
2022/03/28 02:04:27;;;;;;;17.37;10.73;;;4.80;99.90;;;;;;4949448;28;20529;-78
2022/03/28 02:06:53;;;;;;;18.97;10.57;;;4.80;99.90;;;;;;4948360;28;20235;-78
2022/03/28 02:09:19;;;;;;;21.13;12.47;;;4.70;99.90;;;;;;4947115;28;20179;-79
2022/03/28 02:11:45;;;;;;;18.23;11.40;;;4.70;99.90;;;;;;4948127;28;20215;-78
2022/03/28 02:14:11;;;;;;;19.53;11.87;;;4.80;99.90;;;;;;4947894;28;20180;-77
2022/03/28 02:16:36;;;;;;;22.03;11.97;;;4.80;99.90;;;;;;4947205;28;20203;-79
2022/03/28 02:19:02;;;;;;;20.20;11.57;;;4.80;99.90;;;;;;4946856;28;20180;-79
2022/03/28 02:21:28;;;;;;;21.23;12.00;;;4.80;99.90;;;;;;4939457;29;20185;-77
2022/03/28 02:23:53;;;;;;;19.57;11.63;;;4.90;99.90;;;;;;4970079;28;20234;-77
2022/03/28 02:26:19;;;;;;;20.27;11.73;;;5.00;99.90;;;;;;4939063;28;20210;-77
2022/03/28 02:28:44;;;;;;;20.03;12.17;;;5.00;99.90;;;;;;4939802;28;20238;-77
2022/03/28 02:31:10;;;;;;;21.83;11.63;;;4.90;99.90;;;;;;4955646;28;20190;-77
2022/03/28 02:33:36;;;;;;;16.57;10.53;;;4.90;99.90;;;;;;4939976;28;20183;-78
2022/03/28 02:36:03;;;;;;;19.00;10.90;;;4.90;99.90;;;;;;4939673;28;20234;-78
2022/03/28 02:38:29;;;;;;;19.33;10.90;;;4.90;99.90;;;;;;4939605;28;20246;-79
2022/03/28 02:40:55;;;;;;;15.93;10.77;;;4.80;99.90;;;;;;4940004;28;20180;-78
2022/03/28 02:43:22;;;;;;;18.40;8.83;;;4.70;99.90;;;;;;4939215;28;20239;-78
2022/03/28 02:45:48;;;;;;;19.43;10.77;;;4.70;99.90;;;;;;4937312;28;20290;-78
2022/03/28 02:48:14;;;;;;;22.17;11.93;;;4.70;99.90;;;;;;4939476;28;20291;-78
2022/03/28 02:50:39;;;;;;;22.20;12.53;;;4.70;99.90;;;;;;4940586;28;20657;-78
2022/03/28 02:53:05;;;;;;;25.50;12.80;;;4.70;99.90;;;;;;4939782;28;20172;-76
2022/03/28 02:55:31;;;;;;;22.30;13.47;;;4.70;99.90;;;;;;4942389;28;20200;-76
2022/03/28 02:57:57;;;;;;;22.30;12.00;;;4.70;99.90;;;;;;4943465;28;20310;-77
2022/03/28 03:00:22;;;;;;;25.57;13.97;;;4.70;99.90;;;;;;4943256;28;20184;-77
2022/03/28 03:02:48;;;;;;;25.27;13.40;;;4.70;99.90;;;;;;4943697;28;20206;-78
2022/03/28 03:05:13;;;;;;;26.33;14.37;;;4.70;99.90;;;;;;4943433;28;20195;-77
2022/03/28 03:07:40;;;;;;;28.17;14.07;;;4.70;99.90;;;;;;4943429;28;20212;-77
2022/03/28 03:10:07;;;;;;;25.70;13.97;;;4.80;99.90;;;;;;4943436;28;20176;-77
2022/03/28 03:12:33;;;;;;;25.70;13.60;;;4.70;99.90;;;;;;4942519;28;20183;-77
2022/03/28 03:14:58;;;;;;;29.83;15.10;;;4.70;99.90;;;;;;4941889;28;20180;-78
2022/03/28 03:17:24;;;;;;;25.23;15.23;;;4.70;99.90;;;;;;4942681;28;20241;-78
2022/03/28 03:19:50;;;;;;;25.87;14.37;;;4.80;99.90;;;;;;4943095;28;20565;-80
2022/03/28 03:22:17;;;;;;;26.40;15.17;;;4.80;99.90;;;;;;4943545;28;20590;-77
2022/03/28 03:24:43;;;;;;;27.93;14.70;;;4.80;99.90;;;;;;4959771;28;20190;-79
2022/03/28 03:27:10;;;;;;;28.20;15.47;;;4.80;99.90;;;;;;4943595;28;20243;-77
2022/03/28 03:29:36;;;;;;;27.03;16.20;;;4.90;99.90;;;;;;4943250;28;20635;-79
2022/03/28 03:32:03;;;;;;;29.97;15.77;;;4.80;99.90;;;;;;4943451;28;20176;-78
2022/03/28 03:34:34;;;;;;;30.20;16.17;;;4.80;99.90;;;;;;4943941;28;20315;-79
2022/03/28 03:37:01;;;;;;;27.03;15.00;;;4.90;99.90;;;;;;4944315;28;20204;-78
2022/03/28 03:39:27;;;;;;;30.23;15.47;;;4.90;99.90;;;;;;4943901;28;20246;-77
2022/03/28 03:41:53;;;;;;;30.93;15.83;;;4.90;99.90;;;;;;4944026;28;20184;-76
2022/03/28 03:44:19;;;;;;;27.63;15.57;;;5.00;99.90;;;;;;4944482;28;20187;-78
2022/03/28 03:46:46;;;;;;;30.93;15.57;;;5.00;99.90;;;;;;4944058;28;20216;-79
2022/03/28 03:49:12;;;;;;;27.97;15.67;;;5.00;99.90;;;;;;4944001;28;20200;-77
2022/03/28 03:51:38;;;;;;;28.17;15.20;;;4.90;99.90;;;;;;4943840;28;20184;-78
2022/03/28 03:54:04;;;;;;;29.23;15.03;;;4.90;99.90;;;;;;4944382;28;20252;-78
2022/03/28 03:56:30;;;;;;;29.83;15.17;;;4.90;99.90;;;;;;4943510;28;20200;-78
2022/03/28 03:58:56;;;;;;;22.90;13.40;;;4.90;99.90;;;;;;4943200;28;20195;-78
2022/03/28 04:01:23;;;;;;;24.57;12.73;;;4.90;99.90;;;;;;4944030;28;20263;-78
2022/03/28 04:03:49;;;;;;;22.10;11.47;;;4.90;99.90;;;;;;4943874;28;20230;-78
2022/03/28 04:06:15;;;;;;;21.17;10.50;;;4.90;99.90;;;;;;4942700;28;20595;-78
2022/03/28 04:08:40;;;;;;;19.60;11.10;;;4.90;99.90;;;;;;4943927;28;20203;-78
2022/03/28 04:11:07;;;;;;;14.33;8.63;;;4.90;99.90;;;;;;4945101;28;20187;-78
2022/03/28 04:13:36;;;;;;;12.33;7.80;;;4.90;99.90;;;;;;4943789;28;20183;-77
2022/03/28 04:16:02;;;;;;;13.37;7.53;;;4.80;99.90;;;;;;4959726;28;20262;-77
2022/03/28 04:18:28;;;;;;;12.90;7.60;;;4.80;99.90;;;;;;4943295;28;20240;-80
2022/03/28 04:20:57;;;;;;;8.30;6.20;;;4.80;99.90;;;;;;4944461;28;20187;-78
2022/03/28 04:23:24;;;;;;;8.97;6.17;;;4.80;99.90;;;;;;4943955;28;20192;-78
2022/03/28 04:25:50;;;;;;;11.20;6.00;;;4.80;99.90;;;;;;4945088;28;20199;-78
2022/03/28 04:28:16;;;;;;;10.20;7.27;;;4.80;99.90;;;;;;4947071;28;20239;-77
2022/03/28 04:30:42;;;;;;;9.57;7.20;;;4.80;99.90;;;;;;4946786;28;20184;-78
2022/03/28 04:33:09;;;;;;;14.43;8.33;;;4.80;99.90;;;;;;4946743;28;20650;-77
2022/03/28 04:35:36;;;;;;;12.03;8.37;;;4.70;99.90;;;;;;4946372;28;20284;-79
2022/03/28 04:38:04;;;;;;;10.50;7.60;;;4.70;99.90;;;;;;4943600;28;20184;-77
2022/03/28 04:40:30;;;;;;;8.67;6.73;;;4.70;99.90;;;;;;4944146;28;20188;-77
2022/03/28 04:42:56;;;;;;;8.73;6.73;;;4.70;99.90;;;;;;4945517;28;20183;-78
2022/03/28 04:45:22;;;;;;;12.80;7.17;;;4.70;99.90;;;;;;4944735;28;20282;-77
2022/03/28 04:47:47;;;;;;;13.40;7.70;;;4.70;99.90;;;;;;4945668;28;20222;-77
2022/03/28 04:50:13;;;;;;;13.27;7.07;;;4.70;99.90;;;;;;4946264;28;20172;-78
2022/03/28 04:52:39;;;;;;;13.30;8.27;;;4.80;99.90;;;;;;4947531;28;20188;-78
2022/03/28 04:55:05;;;;;;;11.57;7.13;;;4.80;99.90;;;;;;4943561;28;20211;-77
2022/03/28 04:57:31;;;;;;;11.87;5.77;;;4.80;99.90;;;;;;4947080;28;20192;-77
2022/03/28 04:59:57;;;;;;;7.03;4.70;;;4.80;99.90;;;;;;4950649;28;20191;-77
2022/03/28 05:02:23;;;;;;;8.03;4.77;;;4.70;99.90;;;;;;4953618;28;20182;-78
2022/03/28 05:04:49;;;;;;;7.97;5.03;;;4.70;99.90;;;;;;4950974;28;20300;-77
2022/03/28 05:07:25;;;;;;;7.67;4.90;;;4.70;99.90;;;;;;4945390;28;20216;-78
2022/03/28 05:09:53;;;;;;;9.37;5.83;;;4.70;99.90;;;;;;4945833;28;20223;-77
2022/03/28 05:12:19;;;;;;;9.67;6.03;;;4.70;99.90;;;;;;4950376;28;20187;-78
2022/03/28 05:14:45;;;;;;;12.83;6.73;;;4.70;99.90;;;;;;4953274;28;20235;-77
2022/03/28 05:17:10;;;;;;;13.03;7.43;;;4.70;99.90;;;;;;4949650;28;20211;-78
2022/03/28 05:19:36;;;;;;;12.57;7.40;;;4.70;99.90;;;;;;4948455;28;20238;-77
2022/03/28 05:22:02;;;;;;;12.67;6.87;;;4.70;99.90;;;;;;4951396;28;20524;-78
2022/03/28 05:24:28;;;;;;;13.47;7.47;;;4.70;99.90;;;;;;4949664;28;20191;-78
2022/03/28 05:26:54;;;;;;;17.50;7.90;;;4.70;99.90;;;;;;4941862;28;20587;-78
2022/03/28 05:29:23;;;;;;;13.63;7.50;;;4.70;99.90;;;;;;4941687;28;20177;-76
2022/03/28 05:31:49;;;;;;;14.77;8.20;;;4.70;99.90;;;;;;4941447;28;20184;-78
2022/03/28 05:34:15;;;;;;;13.33;8.23;;;4.70;99.90;;;;;;4941166;28;20189;-77
2022/03/28 05:36:42;;;;;;;15.37;8.67;;;4.60;99.90;;;;;;4940662;28;20308;-78
2022/03/28 05:39:08;;;;;;;13.87;8.23;;;4.70;99.90;;;;;;4941693;28;20192;-78
2022/03/28 05:41:34;;;;;;;14.50;8.37;;;4.70;99.90;;;;;;4942010;28;20277;-77
2022/03/28 05:44:00;;;;;;;14.60;8.07;;;4.80;99.90;;;;;;4941469;28;20184;-78
2022/03/28 05:46:26;;;;;;;14.20;9.20;;;4.90;99.90;;;;;;4941684;28;20208;-77
2022/03/28 05:48:52;;;;;;;13.10;8.10;;;4.80;99.90;;;;;;4941009;28;20270;-77
2022/03/28 05:51:19;;;;;;;13.77;8.63;;;4.80;99.90;;;;;;4940940;28;20211;-78
2022/03/28 05:53:45;;;;;;;16.67;8.23;;;4.80;99.90;;;;;;4941588;28;20179;-78
2022/03/28 05:56:10;;;;;;;15.53;8.87;;;4.90;99.90;;;;;;4941491;28;20272;-78
2022/03/28 05:58:36;;;;;;;15.27;8.60;;;5.00;99.90;;;;;;4940569;28;20263;-77
2022/03/28 06:01:02;;;;;;;12.83;7.93;;;5.10;99.90;;;;;;4941466;28;20184;-78
2022/03/28 06:03:27;;;;;;;14.67;8.67;;;5.20;99.90;;;;;;4941198;28;20238;-78
2022/03/28 06:05:53;;;;;;;13.80;7.87;;;5.20;99.90;;;;;;4940555;28;20721;-78
2022/03/28 06:08:19;;;;;;;14.77;8.63;;;5.20;99.90;;;;;;4941241;28;20215;-79
2022/03/28 06:10:45;;;;;;;13.97;7.90;;;5.20;99.90;;;;;;4941413;28;20183;-79
2022/03/28 06:13:12;;;;;;;11.97;7.13;;;5.20;99.90;;;;;;4943548;28;20176;-79
2022/03/28 06:15:38;;;;;;;12.63;6.97;;;5.20;99.90;;;;;;4941173;28;20295;-78
2022/03/28 06:18:05;;;;;;;12.90;6.83;;;5.10;99.90;;;;;;4940575;28;20187;-79
2022/03/28 06:20:34;;;;;;;11.73;7.20;;;5.10;99.90;;;;;;4940931;28;20239;-79
2022/03/28 06:23:02;;;;;;;14.10;7.30;;;5.10;99.90;;;;;;4940765;28;20628;-78
2022/03/28 06:25:28;;;;;;;12.20;7.43;;;5.10;99.90;;;;;;4940705;28;20220;-78
2022/03/28 06:27:54;;;;;;;13.07;7.70;;;5.10;99.90;;;;;;4940484;28;20314;-78
2022/03/28 06:30:20;;;;;;;13.23;7.63;;;5.10;99.90;;;;;;4959368;28;20187;-80
2022/03/28 06:32:45;;;;;;;14.87;7.13;;;5.10;99.90;;;;;;4944476;28;20195;-78
2022/03/28 06:35:11;;;;;;;12.63;6.60;;;5.10;99.90;;;;;;4944304;28;20206;-78
2022/03/28 06:37:37;;;;;;;11.90;7.23;;;5.20;99.90;;;;;;4944205;28;20187;-78
2022/03/28 06:40:04;;;;;;;11.07;5.93;;;5.10;99.90;;;;;;4943475;28;20643;-78
2022/03/28 06:42:32;;;;;;;11.13;6.17;;;5.10;99.90;;;;;;4942466;28;20180;-80
2022/03/28 06:44:58;;;;;;;7.77;5.63;;;5.10;99.90;;;;;;4942927;28;20191;-79
2022/03/28 06:47:24;;;;;;;9.13;5.10;;;5.10;99.90;;;;;;4942710;28;20207;-78
2022/03/28 06:49:50;;;;;;;6.13;4.40;;;5.10;99.90;;;;;;4943133;28;20190;-79
2022/03/28 06:52:15;;;;;;;5.40;4.37;;;5.00;99.90;;;;;;4944122;28;20262;-78
2022/03/28 06:54:41;;;;;;;5.97;4.17;;;4.90;99.90;;;;;;4942912;28;20180;-78
2022/03/28 06:57:07;;;;;;;5.30;4.00;;;5.00;99.90;;;;;;4942736;28;20210;-78
2022/03/28 06:59:33;;;;;;;6.40;3.80;;;5.00;99.90;;;;;;4943948;28;20179;-78
2022/03/28 07:01:58;;;;;;;5.77;3.93;;;4.90;99.90;;;;;;4944259;28;20204;-79
2022/03/28 07:04:25;;;;;;;4.07;3.30;;;5.00;99.90;;;;;;4951408;28;20218;-79
2022/03/28 07:06:51;;;;;;;3.23;2.93;;;5.00;99.90;;;;;;4943555;29;20216;-79
2022/03/28 07:09:17;;;;;;;4.13;3.17;;;5.00;99.90;;;;;;4940588;29;20180;-78
2022/03/28 07:11:43;;;;;;;4.23;3.17;;;4.90;99.90;;;;;;4940711;29;20177;-79
2022/03/28 07:14:09;;;;;;;4.87;3.80;;;5.00;99.90;;;;;;4941651;29;20184;-76
2022/03/28 07:16:35;;;;;;;4.97;3.30;;;5.20;99.90;;;;;;4955651;29;20263;-79
2022/03/28 07:19:01;;;;;;;3.63;2.67;;;5.20;99.90;;;;;;4956032;29;20181;-78
2022/03/28 07:21:26;;;;;;;2.57;2.33;;;5.20;99.90;;;;;;4955767;29;20231;-78
2022/03/28 07:23:53;;;;;;;2.47;2.10;;;5.20;99.90;;;;;;4955678;29;20239;-78
2022/03/28 07:26:20;;;;;;;2.73;1.97;;;5.10;99.90;;;;;;4955566;29;20197;-78
2022/03/28 07:28:46;;;;;;;4.07;2.23;;;5.10;99.90;;;;;;4955117;28;20208;-78
2022/03/28 07:31:12;;;;;;;2.50;2.00;;;5.10;99.90;;;;;;4955444;29;20189;-79
2022/03/28 07:33:39;;;;;;;2.40;1.60;;;5.30;99.90;;;;;;4966547;28;20187;-80
2022/03/28 07:36:05;;;;;;;2.17;1.83;;;5.50;99.90;;;;;;4959434;28;20689;-78
2022/03/28 07:38:30;;;;;;;2.40;2.00;;;5.50;99.90;;;;;;4959343;28;20628;-79
2022/03/28 07:40:56;;;;;;;2.40;2.20;;;5.40;99.90;;;;;;4959025;28;20215;-80
2022/03/28 07:43:22;;;;;;;2.63;2.30;;;5.40;99.90;;;;;;4958841;28;20192;-80
2022/03/28 07:45:50;;;;;;;2.90;2.70;;;5.50;99.90;;;;;;4959015;28;20282;-80
2022/03/28 07:48:16;;;;;;;3.23;2.90;;;5.60;99.90;;;;;;4958515;28;20207;-79
2022/03/28 07:50:42;;;;;;;4.70;4.07;;;5.60;99.90;;;;;;4959798;28;20176;-80
2022/03/28 07:53:08;;;;;;;4.30;3.90;;;5.50;99.90;;;;;;4959566;28;20183;-79
2022/03/28 07:55:34;;;;;;;3.90;3.40;;;5.50;99.90;;;;;;4958715;28;20203;-78
2022/03/28 07:58:02;;;;;;;4.07;3.10;;;5.50;99.90;;;;;;4958842;28;20234;-78
2022/03/28 08:00:29;;;;;;;4.23;2.80;;;5.50;99.90;;;;;;4942536;28;20181;-78
2022/03/28 08:02:55;;;;;;;3.80;3.30;;;5.50;99.90;;;;;;4957356;28;20195;-78
2022/03/28 08:05:21;;;;;;;4.97;4.17;;;5.50;99.90;;;;;;4939609;28;20236;-80
2022/03/28 08:07:51;;;;;;;6.40;4.83;;;5.50;99.90;;;;;;4935337;28;20203;-80
2022/03/28 08:10:18;;;;;;;8.53;5.07;;;5.50;99.90;;;;;;4948105;28;20179;-79
2022/03/28 08:12:44;;;;;;;6.77;5.23;;;5.50;99.90;;;;;;4944144;28;20586;-78
2022/03/28 08:15:12;;;;;;;7.00;5.07;;;5.60;99.90;;;;;;4942869;28;20648;-77
2022/03/28 08:17:38;;;;;;;6.37;5.00;;;5.80;99.90;;;;;;4945189;28;20234;-86
2022/03/28 08:20:06;;;;;;;7.53;5.83;;;5.90;99.90;;;;;;4947015;28;20175;-83
2022/03/28 08:22:33;;;;;;;7.97;6.17;;;5.90;99.90;;;;;;4943649;29;20185;-82
2022/03/28 08:24:59;;;;;;;9.47;7.10;;;5.90;99.90;;;;;;4943006;28;20188;-82
2022/03/28 08:27:24;;;;;;;8.73;6.00;;;5.90;99.90;;;;;;4961911;28;20207;-86
2022/03/28 08:29:50;;;;;;;6.87;5.87;;;5.90;99.90;;;;;;4943835;29;20181;-82
2022/03/28 08:32:16;;;;;;;7.60;6.47;;;5.90;99.90;;;;;;4947886;29;20181;-81
2022/03/28 08:34:42;;;;;;;8.27;6.60;;;6.00;99.90;;;;;;4974411;28;20422;-83
2022/03/28 08:37:09;;;;;;;8.50;6.40;;;6.00;99.90;;;;;;4950091;28;20197;-84
2022/03/28 08:39:35;;;;;;;7.40;5.93;;;6.00;99.90;;;;;;4946862;28;20632;-83
2022/03/28 08:42:01;;;;;;;7.70;4.90;;;6.00;99.90;;;;;;4962887;28;20195;-84
2022/03/28 08:44:27;;;;;;;9.23;5.20;;;6.00;99.90;;;;;;4948194;28;20264;-81
2022/03/28 08:46:55;;;;;;;6.17;4.93;;;6.00;99.90;;;;;;4945662;28;20285;-82
2022/03/28 08:49:21;;;;;;;8.40;5.23;;;6.00;99.90;;;;;;4945838;28;20191;-83
2022/03/28 08:51:46;;;;;;;8.20;5.47;;;5.90;99.90;;;;;;4945444;28;20184;-81
2022/03/28 08:54:14;;;;;;;8.73;5.33;;;6.00;99.90;;;;;;4964813;28;20238;-80
2022/03/28 08:56:40;;;;;;;6.87;4.80;;;6.10;99.90;;;;;;4955217;28;20223;-84
2022/03/28 08:59:05;;;;;;;4.70;4.10;;;6.20;99.90;;;;;;4970940;28;20189;-82
2022/03/28 09:01:32;;;;;;;8.13;4.60;;;6.40;99.90;;;;;;4954485;28;20183;-83
2022/03/28 09:04:06;;;;;;;4.97;3.97;;;6.30;99.90;;;;;;4972699;28;20321;-82
2022/03/28 09:06:36;;;;;;;3.60;3.30;;;6.30;99.90;;;;;;4972146;28;20265;-83
2022/03/28 09:09:16;;;;;;;3.27;2.83;;;6.40;99.90;;;;;;4944929;28;20224;-81
2022/03/28 09:11:44;;;;;;;4.33;2.93;;;6.50;99.90;;;;;;4948550;28;20181;-81
2022/03/28 09:14:28;;;;;;;4.60;3.00;;;6.50;99.90;;;;;;4944002;28;20184;-81
2022/03/28 09:17:13;;;;;;;6.53;2.80;;;6.50;99.90;;;;;;4960028;28;20201;-82
2022/03/28 09:19:45;;;;;;;4.67;3.43;;;6.40;99.90;;;;;;4924856;29;20176;-83
2022/03/28 09:22:20;;;;;;;3.83;3.43;;;6.40;99.90;;;;;;4935076;28;20640;-81
2022/03/28 09:24:46;;;;;;;3.47;3.17;;;6.50;99.90;;;;;;4960156;28;20203;-81
2022/03/28 09:27:21;;;;;;;4.93;3.43;;;6.60;99.90;;;;;;4943567;28;20243;-81
2022/03/28 09:30:05;;;;;;;5.43;3.37;;;6.70;99.90;;;;;;4960012;28;20183;-83
2022/03/28 09:32:49;;;;;;;6.17;4.47;;;6.60;99.90;;;;;;4944940;28;20219;-82
2022/03/28 09:35:19;;;;;;;6.73;3.90;;;6.60;99.90;;;;;;4960675;28;20177;-82
2022/03/28 09:37:51;;;;;;;6.20;4.13;;;6.70;99.90;;;;;;4944429;28;20271;-83
2022/03/28 09:40:42;;;;;;;7.90;5.30;;;6.80;99.90;;;;;;4944722;28;20190;-82
2022/03/28 09:43:21;;;;;;;6.97;4.87;;;6.90;99.90;;;;;;4945345;28;20183;-83
2022/03/28 09:45:52;;;;;;;5.83;4.60;;;7.00;99.90;;;;;;4961996;28;20199;-81
2022/03/28 09:48:22;;;;;;;6.87;4.50;;;7.10;99.90;;;;;;4962152;28;20204;-83
2022/03/28 09:51:36;;;;;;;5.70;4.50;;;7.20;99.90;;;;;;4961033;28;20194;-85
2022/03/28 09:54:02;;;;;;;5.40;4.37;;;7.40;99.90;;;;;;4910671;28;20637;-82
2022/03/28 09:56:28;;;;;;;6.40;4.20;;;7.70;99.90;;;;;;4947145;28;20199;-83
2022/03/28 09:59:00;;;;;;;4.53;4.03;;;7.70;99.90;;;;;;4964958;28;20258;-82
2022/03/28 10:01:29;;;;;;;6.50;4.70;;;7.70;99.90;;;;;;4930689;28;20183;-80
2022/03/28 10:04:01;;;;;;;4.80;4.30;;;7.80;99.90;;;;;;4963344;28;20555;-81
2022/03/28 10:06:28;;;;;;;6.23;4.00;;;7.90;99.90;;;;;;4944652;28;20222;-83
2022/03/28 10:08:53;;;;;;;5.37;4.40;;;7.80;99.90;;;;;;4961023;28;20257;-83
2022/03/28 10:11:20;;;;;;;6.83;4.63;;;7.80;99.90;;;;;;4946384;28;20179;-84
2022/03/28 10:13:46;;;;;;;5.80;4.93;;;7.90;99.90;;;;;;4950635;28;20176;-84
2022/03/28 10:16:12;;;;;;;6.63;5.23;;;7.90;99.90;;;;;;4947885;29;20207;-82
2022/03/28 10:18:41;;;;;;;9.20;5.30;;;7.80;99.90;;;;;;4964606;28;20187;-82
2022/03/28 10:21:29;;;;;;;7.03;5.23;;;7.80;99.90;;;;;;4961565;28;20182;-85
2022/03/28 10:24:03;;;;;;;6.53;5.40;;;7.90;99.90;;;;;;4946556;28;20638;-85
2022/03/28 10:26:33;;;;;;;7.07;5.03;;;7.90;99.90;;;;;;4961393;28;20214;-81
2022/03/28 10:29:03;;;;;;;8.63;5.37;;;8.00;99.90;;;;;;4961607;28;20196;-83
2022/03/28 10:31:31;;;;;;;9.07;5.77;;;8.10;99.90;;;;;;4962354;28;20175;-83
2022/03/28 10:33:57;;;;;;;7.13;5.77;;;8.30;99.90;;;;;;4947800;28;20179;-86
2022/03/28 10:36:32;;;;;;;7.30;5.30;;;8.30;99.90;;;;;;4946857;28;20207;-87
2022/03/28 10:39:36;;;;;;;6.60;4.87;;;8.40;99.90;;;;;;4949968;28;20176;-84
2022/03/28 10:42:26;;;;;;;7.33;5.40;;;8.50;99.90;;;;;;4964336;28;20269;-83
2022/03/28 10:45:05;;;;;;;5.83;4.57;;;8.80;99.90;;;;;;4950009;28;20164;-85
2022/03/28 10:48:13;;;;;;;5.93;4.60;;;9.00;99.90;;;;;;4947524;28;20208;-85
2022/03/28 10:50:51;;;;;;;9.17;5.40;;;9.30;99.90;;;;;;4949529;28;20200;-86
2022/03/28 10:53:25;;;;;;;5.30;4.80;;;9.40;99.90;;;;;;4950412;28;20208;-87
2022/03/28 10:56:10;;;;;;;6.50;5.20;;;9.40;99.90;;;;;;4960874;28;20199;-89
2022/03/28 10:58:42;;;;;;;7.50;5.57;;;9.40;99.90;;;;;;4944183;28;20187;-86
2022/03/28 11:01:07;;;;;;;5.17;4.60;;;9.40;99.90;;;;;;4956856;28;20196;-88
2022/03/28 11:04:04;;;;;;;6.20;5.20;;;9.40;99.90;;;;;;4963387;28;20192;-88
2022/03/28 11:07:00;;;;;;;5.90;5.10;;;9.70;99.90;;;;;;4962414;28;20219;-90
2022/03/28 11:09:41;;;;;;;8.70;5.60;;;10.20;99.90;;;;;;4955428;28;20180;-90
2022/03/28 11:12:12;;;;;;;7.70;6.27;;;10.30;99.90;;;;;;4964586;28;20187;-88
2022/03/28 11:15:00;;;;;;;10.17;8.10;;;10.30;99.90;;;;;;4963610;28;20219;-83
2022/03/28 11:17:32;;;;;;;11.03;7.83;;;10.40;99.90;;;;;;4964534;28;20245;-83
2022/03/28 11:20:15;;;;;;;9.33;6.93;;;10.60;99.90;;;;;;4965214;28;20185;-83
2022/03/28 11:22:50;;;;;;;7.70;6.43;;;10.70;99.90;;;;;;4966053;28;20200;-84
2022/03/28 11:25:46;;;;;;;8.50;6.83;;;11.30;99.90;;;;;;4966678;28;20173;-82
2022/03/28 11:28:21;;;;;;;9.33;6.47;;;11.20;99.90;;;;;;4947801;28;20217;-85
2022/03/28 11:30:53;;;;;;;8.43;6.57;;;11.90;99.90;;;;;;4966972;28;20179;-89
2022/03/28 11:33:21;;;;;;;7.10;5.10;;;12.40;99.60;;;;;;4967523;28;20168;-85
2022/03/28 11:36:02;;;;;;;5.53;4.73;;;12.50;98.50;;;;;;4967067;28;20214;-82
2022/03/28 11:38:53;;;;;;;6.27;5.47;;;12.20;98.60;;;;;;4962862;28;20176;-88
2022/03/28 11:41:21;;;;;;;8.03;5.80;;;11.10;99.70;;;;;;4964667;29;20186;-90
2022/03/28 11:43:58;;;;;;;6.83;4.30;;;10.60;99.90;;;;;;4975740;28;20165;-89
2022/03/28 11:46:34;;;;;;;6.93;4.53;;;10.90;99.90;;;;;;4980117;28;20297;-90
2022/03/28 11:49:04;;;;;;;7.40;4.77;;;11.20;99.90;;;;;;4948018;28;20186;-90
2022/03/28 11:51:43;;;;;;;6.07;4.00;;;11.30;99.90;;;;;;4956278;28;20183;-91
2022/03/28 11:54:17;;;;;;;6.70;4.30;;;12.20;99.20;;;;;;4981078;28;20175;-89
2022/03/28 11:59:39;;;;;;;5.30;4.00;;;13.20;96.70;;;;;;4979426;28;20184;-90
2022/03/28 12:02:08;;;;;;;4.03;3.37;;;12.60;97.20;;;;;;4972764;28;20163;-89
2022/03/28 12:04:59;;;;;;;7.37;4.10;;;11.70;98.10;;;;;;4982531;28;20157;-90
2022/03/28 12:07:33;;;;;;;6.77;4.00;;;11.10;99.60;;;;;;4966389;28;20216;-90
2022/03/28 12:09:59;;;;;;;8.57;4.87;;;10.80;99.90;;;;;;4966789;28;20161;-88
2022/03/28 12:12:28;;;;;;;8.87;4.03;;;10.70;99.90;;;;;;4982780;28;20188;-89
2022/03/28 12:14:54;;;;;;;5.40;4.10;;;10.90;99.90;;;;;;4966465;28;20204;-88
2022/03/28 12:17:27;;;;;;;5.37;4.10;;;11.10;99.90;;;;;;4966456;28;20204;-85
2022/03/28 12:20:04;;;;;;;5.90;4.27;;;11.10;99.90;;;;;;4982720;28;20171;-83
2022/03/28 12:22:42;;;;;;;5.80;4.17;;;11.10;99.90;;;;;;4983507;28;20222;-84
2022/03/28 12:25:08;;;;;;;7.10;4.37;;;11.10;99.90;;;;;;4983219;28;20173;-83
2022/03/28 12:27:34;;;;;;;5.67;4.37;;;10.80;99.90;;;;;;4981504;28;20200;-83
2022/03/28 12:30:00;;;;;;;7.13;4.10;;;10.70;99.90;;;;;;4982171;28;20188;-86
2022/03/28 12:32:26;;;;;;;5.23;3.93;;;10.90;99.90;;;;;;4966047;28;20182;-85
2022/03/28 12:34:51;;;;;;;4.50;4.10;;;10.90;99.90;;;;;;4965277;28;20191;-86
2022/03/28 12:37:17;;;;;;;5.57;3.90;;;10.90;99.90;;;;;;4965327;28;20233;-84
2022/03/28 12:39:43;;;;;;;5.30;3.70;;;11.00;99.90;;;;;;4964948;28;20180;-84
2022/03/28 12:42:23;;;;;;;6.73;4.50;;;10.90;99.90;;;;;;4963652;28;20172;-81
2022/03/28 12:44:53;;;;;;;7.57;4.90;;;10.70;99.90;;;;;;4965285;28;20229;-83
2022/03/28 12:47:19;;;;;;;5.73;4.23;;;10.40;99.90;;;;;;4980492;28;20211;-79
2022/03/28 12:49:45;;;;;;;8.90;4.77;;;10.10;99.90;;;;;;4979619;28;20261;-83
2022/03/28 12:52:14;;;;;;;6.50;4.00;;;10.20;99.90;;;;;;4960257;28;20176;-87
2022/03/28 12:54:42;;;;;;;6.83;4.63;;;10.20;99.90;;;;;;4961183;28;20237;-81
2022/03/28 12:57:09;;;;;;;9.63;5.00;;;10.20;99.90;;;;;;4988709;28;20195;-86
2022/03/28 12:59:35;;;;;;;5.70;5.00;;;9.90;99.90;;;;;;4976523;28;20180;-81
2022/03/28 13:02:13;;;;;;;8.57;5.30;;;9.80;99.90;;;;;;4979527;28;20164;-84